sensor_id;sensor_type;location;lat;lon;timestamp;pressure;altitude;pressure_sealevel;temperature
7830;BMP180;3960;51.86894000;5.39848000;2023-03-23T00:00:31;100250.72;;;11.97
7830;BMP180;3960;51.86894000;5.39848000;2023-03-23T00:02:57;100253.63;;;12.06
7830;BMP180;3960;51.86894000;5.39848000;2023-03-23T00:05:22;100250.16;;;12.06
7830;BMP180;3960;51.86894000;5.39848000;2023-03-23T00:07:47;100262.59;;;12.03
7830;BMP180;3960;51.86894000;5.39848000;2023-03-23T00:10:17;100267.63;;;12.05
7830;BMP180;3960;51.86894000;5.39848000;2023-03-23T00:12:42;100258.28;;;12.06
7830;BMP180;3960;51.86894000;5.39848000;2023-03-23T00:15:10;100264.56;;;12.03
7830;BMP180;3960;51.86894000;5.39848000;2023-03-23T00:17:38;100270.25;;;12.08
7830;BMP180;3960;51.86894000;5.39848000;2023-03-23T00:20:06;100267.44;;;12.12
7830;BMP180;3960;51.86894000;5.39848000;2023-03-23T00:22:32;100260.47;;;12.11
7830;BMP180;3960;51.86894000;5.39848000;2023-03-23T00:25:02;100242.00;;;12.06
7830;BMP180;3960;51.86894000;5.39848000;2023-03-23T00:27:28;100272.44;;;12.13
7830;BMP180;3960;51.86894000;5.39848000;2023-03-23T00:29:53;100275.50;;;12.15
7830;BMP180;3960;51.86894000;5.39848000;2023-03-23T00:32:23;100287.53;;;12.14
7830;BMP180;3960;51.86894000;5.39848000;2023-03-23T00:34:55;100275.75;;;12.05
7830;BMP180;3960;51.86894000;5.39848000;2023-03-23T00:37:21;100257.69;;;11.98
7830;BMP180;3960;51.86894000;5.39848000;2023-03-23T00:39:46;100255.13;;;12.07
7830;BMP180;3960;51.86894000;5.39848000;2023-03-23T00:42:13;100230.81;;;12.04
7830;BMP180;3960;51.86894000;5.39848000;2023-03-23T00:44:39;100222.41;;;11.98
7830;BMP180;3960;51.86894000;5.39848000;2023-03-23T00:47:06;100211.13;;;12.00
7830;BMP180;3960;51.86894000;5.39848000;2023-03-23T00:49:34;100190.72;;;11.95
7830;BMP180;3960;51.86894000;5.39848000;2023-03-23T00:52:00;100198.44;;;11.97
7830;BMP180;3960;51.86894000;5.39848000;2023-03-23T00:54:27;100193.00;;;11.97
7830;BMP180;3960;51.86894000;5.39848000;2023-03-23T00:56:53;100183.00;;;11.94
7830;BMP180;3960;51.86894000;5.39848000;2023-03-23T00:59:19;100180.97;;;11.98
7830;BMP180;3960;51.86894000;5.39848000;2023-03-23T01:01:45;100167.84;;;11.96
7830;BMP180;3960;51.86894000;5.39848000;2023-03-23T01:04:10;100175.09;;;11.99
7830;BMP180;3960;51.86894000;5.39848000;2023-03-23T01:06:40;100189.75;;;12.02
7830;BMP180;3960;51.86894000;5.39848000;2023-03-23T01:09:07;100180.28;;;11.94
7830;BMP180;3960;51.86894000;5.39848000;2023-03-23T01:11:32;100181.28;;;12.00
7830;BMP180;3960;51.86894000;5.39848000;2023-03-23T01:13:58;100190.00;;;12.07
7830;BMP180;3960;51.86894000;5.39848000;2023-03-23T01:16:24;100196.28;;;12.04
7830;BMP180;3960;51.86894000;5.39848000;2023-03-23T01:18:49;100190.94;;;12.01
7830;BMP180;3960;51.86894000;5.39848000;2023-03-23T01:21:18;100162.97;;;12.04
7830;BMP180;3960;51.86894000;5.39848000;2023-03-23T01:23:43;100158.81;;;11.99
7830;BMP180;3960;51.86894000;5.39848000;2023-03-23T01:26:29;100166.63;;;11.97
7830;BMP180;3960;51.86894000;5.39848000;2023-03-23T01:28:54;100178.00;;;11.92
7830;BMP180;3960;51.86894000;5.39848000;2023-03-23T01:31:22;100156.75;;;11.91
7830;BMP180;3960;51.86894000;5.39848000;2023-03-23T01:33:48;100155.97;;;11.90
7830;BMP180;3960;51.86894000;5.39848000;2023-03-23T01:36:27;100159.78;;;11.93
7830;BMP180;3960;51.86894000;5.39848000;2023-03-23T01:38:54;100145.78;;;11.94
7830;BMP180;3960;51.86894000;5.39848000;2023-03-23T01:41:20;100154.78;;;11.91
7830;BMP180;3960;51.86894000;5.39848000;2023-03-23T01:46:34;100149.78;;;11.90
7830;BMP180;3960;51.86894000;5.39848000;2023-03-23T01:49:09;100140.31;;;11.82
7830;BMP180;3960;51.86894000;5.39848000;2023-03-23T01:51:40;100144.97;;;11.81
7830;BMP180;3960;51.86894000;5.39848000;2023-03-23T01:54:08;100149.78;;;11.90
7830;BMP180;3960;51.86894000;5.39848000;2023-03-23T01:56:41;100153.34;;;11.87
7830;BMP180;3960;51.86894000;5.39848000;2023-03-23T01:59:11;100149.88;;;11.86
7830;BMP180;3960;51.86894000;5.39848000;2023-03-23T02:01:37;100144.09;;;11.84
7830;BMP180;3960;51.86894000;5.39848000;2023-03-23T02:04:08;100147.06;;;11.90
7830;BMP180;3960;51.86894000;5.39848000;2023-03-23T02:06:34;100125.38;;;11.90
7830;BMP180;3960;51.86894000;5.39848000;2023-03-23T02:08:59;100129.16;;;11.92
7830;BMP180;3960;51.86894000;5.39848000;2023-03-23T02:11:25;100131.03;;;11.95
7830;BMP180;3960;51.86894000;5.39848000;2023-03-23T02:13:50;100126.34;;;11.96
7830;BMP180;3960;51.86894000;5.39848000;2023-03-23T02:18:58;100132.13;;;11.98
7830;BMP180;3960;51.86894000;5.39848000;2023-03-23T02:21:55;100144.06;;;12.00
7830;BMP180;3960;51.86894000;5.39848000;2023-03-23T02:27:06;100139.19;;;12.08
7830;BMP180;3960;51.86894000;5.39848000;2023-03-23T02:32:11;100145.63;;;12.14
7830;BMP180;3960;51.86894000;5.39848000;2023-03-23T02:34:42;100150.63;;;12.15
7830;BMP180;3960;51.86894000;5.39848000;2023-03-23T02:37:31;100141.63;;;12.18
7830;BMP180;3960;51.86894000;5.39848000;2023-03-23T02:40:09;100150.09;;;12.20
7830;BMP180;3960;51.86894000;5.39848000;2023-03-23T02:42:39;100149.22;;;12.23
7830;BMP180;3960;51.86894000;5.39848000;2023-03-23T02:45:08;100129.13;;;12.21
7830;BMP180;3960;51.86894000;5.39848000;2023-03-23T02:47:37;100131.34;;;12.26
7830;BMP180;3960;51.86894000;5.39848000;2023-03-23T02:50:05;100123.19;;;12.26
7830;BMP180;3960;51.86894000;5.39848000;2023-03-23T02:52:32;100124.03;;;12.23
7830;BMP180;3960;51.86894000;5.39848000;2023-03-23T02:54:59;100118.84;;;12.28
7830;BMP180;3960;51.86894000;5.39848000;2023-03-23T02:57:26;100130.00;;;12.30
7830;BMP180;3960;51.86894000;5.39848000;2023-03-23T02:59:52;100117.13;;;12.34
7830;BMP180;3960;51.86894000;5.39848000;2023-03-23T03:04:51;100117.88;;;12.35
7830;BMP180;3960;51.86894000;5.39848000;2023-03-23T03:07:40;100133.50;;;12.43
7830;BMP180;3960;51.86894000;5.39848000;2023-03-23T03:10:19;100128.41;;;12.45
7830;BMP180;3960;51.86894000;5.39848000;2023-03-23T03:15:40;100131.03;;;12.48
7830;BMP180;3960;51.86894000;5.39848000;2023-03-23T03:20:55;100126.56;;;12.42
7830;BMP180;3960;51.86894000;5.39848000;2023-03-23T03:23:24;100120.38;;;12.41
7830;BMP180;3960;51.86894000;5.39848000;2023-03-23T03:25:51;100112.00;;;12.36
7830;BMP180;3960;51.86894000;5.39848000;2023-03-23T03:28:19;100125.69;;;12.45
7830;BMP180;3960;51.86894000;5.39848000;2023-03-23T03:30:51;100113.66;;;12.46
7830;BMP180;3960;51.86894000;5.39848000;2023-03-23T03:33:19;100099.09;;;12.40
7830;BMP180;3960;51.86894000;5.39848000;2023-03-23T03:35:46;100107.03;;;12.47
7830;BMP180;3960;51.86894000;5.39848000;2023-03-23T03:38:12;100110.84;;;12.49
7830;BMP180;3960;51.86894000;5.39848000;2023-03-23T03:40:37;100131.69;;;12.52
7830;BMP180;3960;51.86894000;5.39848000;2023-03-23T03:43:04;100123.97;;;12.51
7830;BMP180;3960;51.86894000;5.39848000;2023-03-23T03:45:30;100120.81;;;12.52
7830;BMP180;3960;51.86894000;5.39848000;2023-03-23T03:47:56;100100.19;;;12.42
7830;BMP180;3960;51.86894000;5.39848000;2023-03-23T03:50:21;100118.44;;;12.54
7830;BMP180;3960;51.86894000;5.39848000;2023-03-23T03:52:47;100100.06;;;12.46
7830;BMP180;3960;51.86894000;5.39848000;2023-03-23T03:55:12;100114.19;;;12.53
7830;BMP180;3960;51.86894000;5.39848000;2023-03-23T03:57:37;100112.25;;;12.54
7830;BMP180;3960;51.86894000;5.39848000;2023-03-23T04:00:05;100116.81;;;12.57
7830;BMP180;3960;51.86894000;5.39848000;2023-03-23T04:02:48;100118.31;;;12.58
7830;BMP180;3960;51.86894000;5.39848000;2023-03-23T04:05:17;100113.63;;;12.58
7830;BMP180;3960;51.86894000;5.39848000;2023-03-23T04:07:43;100104.22;;;12.50
7830;BMP180;3960;51.86894000;5.39848000;2023-03-23T04:10:11;100106.72;;;12.57
7830;BMP180;3960;51.86894000;5.39848000;2023-03-23T04:12:38;100116.69;;;12.60
7830;BMP180;3960;51.86894000;5.39848000;2023-03-23T04:15:04;100113.97;;;12.60
7830;BMP180;3960;51.86894000;5.39848000;2023-03-23T04:17:30;100124.09;;;12.60
7830;BMP180;3960;51.86894000;5.39848000;2023-03-23T04:19:55;100121.03;;;12.58
7830;BMP180;3960;51.86894000;5.39848000;2023-03-23T04:22:26;100139.31;;;12.57
7830;BMP180;3960;51.86894000;5.39848000;2023-03-23T04:24:56;100129.53;;;12.60
7830;BMP180;3960;51.86894000;5.39848000;2023-03-23T04:27:24;100145.81;;;12.60
7830;BMP180;3960;51.86894000;5.39848000;2023-03-23T04:29:49;100143.41;;;12.62
7830;BMP180;3960;51.86894000;5.39848000;2023-03-23T04:32:15;100132.44;;;12.53
7830;BMP180;3960;51.86894000;5.39848000;2023-03-23T04:34:43;100153.09;;;12.63
7830;BMP180;3960;51.86894000;5.39848000;2023-03-23T04:37:08;100130.38;;;12.57
7830;BMP180;3960;51.86894000;5.39848000;2023-03-23T04:39:33;100158.22;;;12.61
7830;BMP180;3960;51.86894000;5.39848000;2023-03-23T04:41:59;100152.44;;;12.59
7830;BMP180;3960;51.86894000;5.39848000;2023-03-23T04:44:26;100153.53;;;12.61
7830;BMP180;3960;51.86894000;5.39848000;2023-03-23T04:46:52;100149.63;;;12.62
7830;BMP180;3960;51.86894000;5.39848000;2023-03-23T04:49:19;100155.16;;;12.59
7830;BMP180;3960;51.86894000;5.39848000;2023-03-23T04:51:47;100145.59;;;12.54
7830;BMP180;3960;51.86894000;5.39848000;2023-03-23T04:54:12;100156.00;;;12.56
7830;BMP180;3960;51.86894000;5.39848000;2023-03-23T04:56:38;100134.50;;;12.49
7830;BMP180;3960;51.86894000;5.39848000;2023-03-23T04:59:03;100149.19;;;12.51
7830;BMP180;3960;51.86894000;5.39848000;2023-03-23T05:01:28;100144.28;;;12.46
7830;BMP180;3960;51.86894000;5.39848000;2023-03-23T05:03:54;100152.00;;;12.48
7830;BMP180;3960;51.86894000;5.39848000;2023-03-23T05:06:19;100147.63;;;12.38
7830;BMP180;3960;51.86894000;5.39848000;2023-03-23T05:08:45;100158.28;;;12.45
7830;BMP180;3960;51.86894000;5.39848000;2023-03-23T05:11:10;100156.00;;;12.43
7830;BMP180;3960;51.86894000;5.39848000;2023-03-23T05:13:36;100164.91;;;12.44
7830;BMP180;3960;51.86894000;5.39848000;2023-03-23T05:16:04;100158.06;;;12.39
7830;BMP180;3960;51.86894000;5.39848000;2023-03-23T05:18:30;100160.34;;;12.41
7830;BMP180;3960;51.86894000;5.39848000;2023-03-23T05:21:00;100165.78;;;12.41
7830;BMP180;3960;51.86894000;5.39848000;2023-03-23T05:23:25;100158.06;;;12.39
7830;BMP180;3960;51.86894000;5.39848000;2023-03-23T05:25:55;100163.91;;;12.38
7830;BMP180;3960;51.86894000;5.39848000;2023-03-23T05:28:20;100158.50;;;12.38
7830;BMP180;3960;51.86894000;5.39848000;2023-03-23T05:30:47;100161.66;;;12.37
7830;BMP180;3960;51.86894000;5.39848000;2023-03-23T05:33:12;100164.91;;;12.32
7830;BMP180;3960;51.86894000;5.39848000;2023-03-23T05:35:37;100157.16;;;12.30
7830;BMP180;3960;51.86894000;5.39848000;2023-03-23T05:38:03;100166.84;;;12.31
7830;BMP180;3960;51.86894000;5.39848000;2023-03-23T05:40:29;100176.94;;;12.31
7830;BMP180;3960;51.86894000;5.39848000;2023-03-23T05:42:55;100166.84;;;12.31
7830;BMP180;3960;51.86894000;5.39848000;2023-03-23T05:45:20;100169.56;;;12.31
7830;BMP180;3960;51.86894000;5.39848000;2023-03-23T05:47:46;100158.88;;;12.24
7830;BMP180;3960;51.86894000;5.39848000;2023-03-23T05:50:12;100172.06;;;12.26
7830;BMP180;3960;51.86894000;5.39848000;2023-03-23T05:52:38;100184.75;;;12.29
7830;BMP180;3960;51.86894000;5.39848000;2023-03-23T05:55:05;100129.38;;;12.26
7830;BMP180;3960;51.86894000;5.39848000;2023-03-23T05:57:31;100176.06;;;12.34
7830;BMP180;3960;51.86894000;5.39848000;2023-03-23T05:59:56;100171.41;;;12.34
7830;BMP180;3960;51.86894000;5.39848000;2023-03-23T06:02:23;100181.31;;;12.40
7830;BMP180;3960;51.86894000;5.39848000;2023-03-23T06:04:49;100188.91;;;12.45
7830;BMP180;3960;51.86894000;5.39848000;2023-03-23T06:07:14;100191.97;;;12.47
7830;BMP180;3960;51.86894000;5.39848000;2023-03-23T06:09:41;100192.63;;;12.51
7830;BMP180;3960;51.86894000;5.39848000;2023-03-23T06:12:07;100183.72;;;12.51
7830;BMP180;3960;51.86894000;5.39848000;2023-03-23T06:14:33;100198.91;;;12.48
7830;BMP180;3960;51.86894000;5.39848000;2023-03-23T06:16:58;100198.59;;;12.46
7830;BMP180;3960;51.86894000;5.39848000;2023-03-23T06:19:24;100217.94;;;12.48
7830;BMP180;3960;51.86894000;5.39848000;2023-03-23T06:21:52;100210.53;;;12.49
7830;BMP180;3960;51.86894000;5.39848000;2023-03-23T06:24:17;100211.75;;;12.48
7830;BMP180;3960;51.86894000;5.39848000;2023-03-23T06:26:42;100206.31;;;12.48
7830;BMP180;3960;51.86894000;5.39848000;2023-03-23T06:29:09;100208.50;;;12.53
7830;BMP180;3960;51.86894000;5.39848000;2023-03-23T06:31:40;100212.41;;;12.52
7830;BMP180;3960;51.86894000;5.39848000;2023-03-23T06:34:07;100220.53;;;12.52
7830;BMP180;3960;51.86894000;5.39848000;2023-03-23T06:36:34;100228.78;;;12.48
7830;BMP180;3960;51.86894000;5.39848000;2023-03-23T06:39:00;100224.00;;;12.40
7830;BMP180;3960;51.86894000;5.39848000;2023-03-23T06:41:26;100226.63;;;12.43
7830;BMP180;3960;51.86894000;5.39848000;2023-03-23T06:43:51;100234.50;;;12.38
7830;BMP180;3960;51.86894000;5.39848000;2023-03-23T06:46:16;100231.47;;;12.36
7830;BMP180;3960;51.86894000;5.39848000;2023-03-23T06:48:42;100233.66;;;12.41
7830;BMP180;3960;51.86894000;5.39848000;2023-03-23T06:51:07;100244.00;;;12.46
7830;BMP180;3960;51.86894000;5.39848000;2023-03-23T06:53:33;100248.97;;;12.47
7830;BMP180;3960;51.86894000;5.39848000;2023-03-23T06:55:59;100257.56;;;12.46
7830;BMP180;3960;51.86894000;5.39848000;2023-03-23T06:58:24;100257.66;;;12.42
7830;BMP180;3960;51.86894000;5.39848000;2023-03-23T07:00:54;100260.47;;;12.39
7830;BMP180;3960;51.86894000;5.39848000;2023-03-23T07:03:22;100257.84;;;12.36
7830;BMP180;3960;51.86894000;5.39848000;2023-03-23T07:05:47;100251.91;;;12.40
7830;BMP180;3960;51.86894000;5.39848000;2023-03-23T07:08:12;100245.03;;;12.36
7830;BMP180;3960;51.86894000;5.39848000;2023-03-23T07:10:38;100254.63;;;12.40
7830;BMP180;3960;51.86894000;5.39848000;2023-03-23T07:13:03;100269.28;;;12.43
7830;BMP180;3960;51.86894000;5.39848000;2023-03-23T07:15:29;100256.03;;;12.45
7830;BMP180;3960;51.86894000;5.39848000;2023-03-23T07:17:54;100259.50;;;12.45
7830;BMP180;3960;51.86894000;5.39848000;2023-03-23T07:20:20;100269.63;;;12.45
7830;BMP180;3960;51.86894000;5.39848000;2023-03-23T07:22:45;100270.16;;;12.40
7830;BMP180;3960;51.86894000;5.39848000;2023-03-23T07:25:11;100269.91;;;12.35
7830;BMP180;3960;51.86894000;5.39848000;2023-03-23T07:27:36;100278.94;;;12.32
7830;BMP180;3960;51.86894000;5.39848000;2023-03-23T07:30:03;100285.38;;;12.22
7830;BMP180;3960;51.86894000;5.39848000;2023-03-23T07:32:28;100280.81;;;12.19
7830;BMP180;3960;51.86894000;5.39848000;2023-03-23T07:34:53;100268.03;;;12.03
7830;BMP180;3960;51.86894000;5.39848000;2023-03-23T07:37:19;100276.41;;;12.09
7830;BMP180;3960;51.86894000;5.39848000;2023-03-23T07:39:45;100277.78;;;12.01
7830;BMP180;3960;51.86894000;5.39848000;2023-03-23T07:42:10;100280.44;;;11.88
7830;BMP180;3960;51.86894000;5.39848000;2023-03-23T07:44:35;100269.59;;;11.88
7830;BMP180;3960;51.86894000;5.39848000;2023-03-23T07:47:01;100266.63;;;11.83
7830;BMP180;3960;51.86894000;5.39848000;2023-03-23T07:49:27;100284.44;;;11.84
7830;BMP180;3960;51.86894000;5.39848000;2023-03-23T07:51:52;100290.59;;;11.84
7830;BMP180;3960;51.86894000;5.39848000;2023-03-23T07:54:17;100286.22;;;11.74
7830;BMP180;3960;51.86894000;5.39848000;2023-03-23T07:56:43;100297.66;;;11.82
7830;BMP180;3960;51.86894000;5.39848000;2023-03-23T07:59:10;100299.34;;;11.76
7830;BMP180;3960;51.86894000;5.39848000;2023-03-23T08:01:36;100287.97;;;11.81
7830;BMP180;3960;51.86894000;5.39848000;2023-03-23T08:04:01;100294.09;;;11.85
7830;BMP180;3960;51.86894000;5.39848000;2023-03-23T08:06:27;100294.94;;;11.82
7830;BMP180;3960;51.86894000;5.39848000;2023-03-23T08:08:53;100313.09;;;11.85
7830;BMP180;3960;51.86894000;5.39848000;2023-03-23T08:11:19;100309.28;;;11.82
7830;BMP180;3960;51.86894000;5.39848000;2023-03-23T08:13:45;100329.09;;;11.95
7830;BMP180;3960;51.86894000;5.39848000;2023-03-23T08:16:11;100334.69;;;12.04
7830;BMP180;3960;51.86894000;5.39848000;2023-03-23T08:18:37;100323.22;;;12.13
7830;BMP180;3960;51.86894000;5.39848000;2023-03-23T08:21:04;100328.16;;;12.18
7830;BMP180;3960;51.86894000;5.39848000;2023-03-23T08:23:31;100320.94;;;12.27
7830;BMP180;3960;51.86894000;5.39848000;2023-03-23T08:25:56;100313.53;;;12.28
7830;BMP180;3960;51.86894000;5.39848000;2023-03-23T08:28:22;100325.16;;;12.28
7830;BMP180;3960;51.86894000;5.39848000;2023-03-23T08:30:47;100308.38;;;12.17
7830;BMP180;3960;51.86894000;5.39848000;2023-03-23T08:33:13;100313.41;;;12.19
7830;BMP180;3960;51.86894000;5.39848000;2023-03-23T08:35:39;100315.94;;;12.26
7830;BMP180;3960;51.86894000;5.39848000;2023-03-23T08:38:04;100298.94;;;12.22
7830;BMP180;3960;51.86894000;5.39848000;2023-03-23T08:40:29;100309.72;;;12.25
7830;BMP180;3960;51.86894000;5.39848000;2023-03-23T08:42:55;100334.72;;;12.33
7830;BMP180;3960;51.86894000;5.39848000;2023-03-23T08:45:23;100329.97;;;12.37
7830;BMP180;3960;51.86894000;5.39848000;2023-03-23T08:47:49;100329.97;;;12.37
7830;BMP180;3960;51.86894000;5.39848000;2023-03-23T08:50:19;100344.91;;;12.44
7830;BMP180;3960;51.86894000;5.39848000;2023-03-23T08:52:44;100340.56;;;12.47
7830;BMP180;3960;51.86894000;5.39848000;2023-03-23T08:55:10;100353.81;;;12.45
7830;BMP180;3960;51.86894000;5.39848000;2023-03-23T08:57:36;100346.81;;;12.60
7830;BMP180;3960;51.86894000;5.39848000;2023-03-23T09:00:04;100341.28;;;12.63
7830;BMP180;3960;51.86894000;5.39848000;2023-03-23T09:02:39;100351.84;;;13.43
7830;BMP180;3960;51.86894000;5.39848000;2023-03-23T09:05:05;100362.34;;;13.28
7830;BMP180;3960;51.86894000;5.39848000;2023-03-23T09:07:32;100361.81;;;13.21
7830;BMP180;3960;51.86894000;5.39848000;2023-03-23T09:09:57;100360.75;;;13.81
7830;BMP180;3960;51.86894000;5.39848000;2023-03-23T09:12:22;100363.69;;;14.11
7830;BMP180;3960;51.86894000;5.39848000;2023-03-23T09:14:48;100346.78;;;14.16
7830;BMP180;3960;51.86894000;5.39848000;2023-03-23T09:17:14;100362.22;;;14.31
7830;BMP180;3960;51.86894000;5.39848000;2023-03-23T09:19:39;100357.88;;;14.21
7830;BMP180;3960;51.86894000;5.39848000;2023-03-23T09:22:05;100338.19;;;13.92
7830;BMP180;3960;51.86894000;5.39848000;2023-03-23T09:24:30;100357.69;;;13.66
7830;BMP180;3960;51.86894000;5.39848000;2023-03-23T09:26:56;100355.09;;;13.75
7830;BMP180;3960;51.86894000;5.39848000;2023-03-23T09:29:23;100355.44;;;14.36
7830;BMP180;3960;51.86894000;5.39848000;2023-03-23T09:31:48;100365.97;;;15.01
7830;BMP180;3960;51.86894000;5.39848000;2023-03-23T09:34:14;100375.00;;;15.20
7830;BMP180;3960;51.86894000;5.39848000;2023-03-23T09:36:41;100369.78;;;15.25
7830;BMP180;3960;51.86894000;5.39848000;2023-03-23T09:39:06;100371.59;;;15.58
7830;BMP180;3960;51.86894000;5.39848000;2023-03-23T09:42:03;100378.09;;;15.91
7830;BMP180;3960;51.86894000;5.39848000;2023-03-23T09:47:49;100388.56;;;16.50
7830;BMP180;3960;51.86894000;5.39848000;2023-03-23T09:50:22;100384.88;;;16.26
7830;BMP180;3960;51.86894000;5.39848000;2023-03-23T09:52:58;100376.72;;;16.35
7830;BMP180;3960;51.86894000;5.39848000;2023-03-23T09:55:24;100382.53;;;15.98
7830;BMP180;3960;51.86894000;5.39848000;2023-03-23T09:58:10;100394.00;;;16.32
7830;BMP180;3960;51.86894000;5.39848000;2023-03-23T10:00:39;100394.78;;;16.41
7830;BMP180;3960;51.86894000;5.39848000;2023-03-23T10:03:17;100393.75;;;16.66
7830;BMP180;3960;51.86894000;5.39848000;2023-03-23T10:05:47;100408.94;;;16.93
7830;BMP180;3960;51.86894000;5.39848000;2023-03-23T10:08:20;100407.72;;;16.59
7830;BMP180;3960;51.86894000;5.39848000;2023-03-23T10:11:01;100407.75;;;16.10
7830;BMP180;3960;51.86894000;5.39848000;2023-03-23T10:16:26;100399.97;;;16.39
7830;BMP180;3960;51.86894000;5.39848000;2023-03-23T10:18:59;100407.38;;;16.39
7830;BMP180;3960;51.86894000;5.39848000;2023-03-23T10:21:29;100402.84;;;16.45
7830;BMP180;3960;51.86894000;5.39848000;2023-03-23T10:24:02;100398.75;;;16.49
7830;BMP180;3960;51.86894000;5.39848000;2023-03-23T10:29:39;100409.84;;;16.73
7830;BMP180;3960;51.86894000;5.39848000;2023-03-23T10:32:11;100411.69;;;16.93
7830;BMP180;3960;51.86894000;5.39848000;2023-03-23T10:37:20;100410.56;;;16.37
7830;BMP180;3960;51.86894000;5.39848000;2023-03-23T10:39:57;100404.47;;;16.33
7830;BMP180;3960;51.86894000;5.39848000;2023-03-23T10:42:33;100403.31;;;16.04
7830;BMP180;3960;51.86894000;5.39848000;2023-03-23T10:45:18;100417.44;;;16.60
7830;BMP180;3960;51.86894000;5.39848000;2023-03-23T10:47:56;100402.25;;;16.59
7830;BMP180;3960;51.86894000;5.39848000;2023-03-23T10:50:30;100406.97;;;16.76
7830;BMP180;3960;51.86894000;5.39848000;2023-03-23T10:52:58;100401.03;;;16.51
7830;BMP180;3960;51.86894000;5.39848000;2023-03-23T10:55:35;100416.41;;;16.18
7830;BMP180;3960;51.86894000;5.39848000;2023-03-23T10:58:05;100405.63;;;16.14
7830;BMP180;3960;51.86894000;5.39848000;2023-03-23T11:00:32;100401.47;;;15.92
7830;BMP180;3960;51.86894000;5.39848000;2023-03-23T11:03:04;100403.38;;;16.22
7830;BMP180;3960;51.86894000;5.39848000;2023-03-23T11:05:47;100394.81;;;16.59
7830;BMP180;3960;51.86894000;5.39848000;2023-03-23T11:08:15;100406.03;;;16.79
7830;BMP180;3960;51.86894000;5.39848000;2023-03-23T11:10:49;100404.81;;;17.07
7830;BMP180;3960;51.86894000;5.39848000;2023-03-23T11:13:17;100417.00;;;16.88
7830;BMP180;3960;51.86894000;5.39848000;2023-03-23T11:15:44;100409.41;;;16.65
7830;BMP180;3960;51.86894000;5.39848000;2023-03-23T11:18:41;100421.16;;;16.26
7830;BMP180;3960;51.86894000;5.39848000;2023-03-23T11:21:08;100407.59;;;16.14
7830;BMP180;3960;51.86894000;5.39848000;2023-03-23T11:23:38;100397.25;;;16.00
7830;BMP180;3960;51.86894000;5.39848000;2023-03-23T11:26:23;100404.84;;;16.62
7830;BMP180;3960;51.86894000;5.39848000;2023-03-23T11:28:57;100407.72;;;16.59
7830;BMP180;3960;51.86894000;5.39848000;2023-03-23T11:31:26;100399.97;;;16.57
7830;BMP180;3960;51.86894000;5.39848000;2023-03-23T11:34:09;100404.66;;;16.39
7830;BMP180;3960;51.86894000;5.39848000;2023-03-23T11:36:41;100419.31;;;16.23
7830;BMP180;3960;51.86894000;5.39848000;2023-03-23T11:39:31;100411.88;;;16.24
7830;BMP180;3960;51.86894000;5.39848000;2023-03-23T11:42:02;100409.53;;;16.53
7830;BMP180;3960;51.86894000;5.39848000;2023-03-23T11:44:41;100408.94;;;16.67
7830;BMP180;3960;51.86894000;5.39848000;2023-03-23T11:47:34;100413.63;;;16.57
7830;BMP180;3960;51.86894000;5.39848000;2023-03-23T11:50:08;100403.91;;;16.47
7830;BMP180;3960;51.86894000;5.39848000;2023-03-23T11:52:47;100416.50;;;16.45
7830;BMP180;3960;51.86894000;5.39848000;2023-03-23T11:55:23;100398.16;;;16.45
7830;BMP180;3960;51.86894000;5.39848000;2023-03-23T11:57:49;100398.88;;;16.37
7830;BMP180;3960;51.86894000;5.39848000;2023-03-23T12:00:17;100394.94;;;16.29
7830;BMP180;3960;51.86894000;5.39848000;2023-03-23T12:02:55;100402.44;;;16.07
7830;BMP180;3960;51.86894000;5.39848000;2023-03-23T12:14:13;100381.53;;;15.74
7830;BMP180;3960;51.86894000;5.39848000;2023-03-23T12:19:36;100404.00;;;15.47
7830;BMP180;3960;51.86894000;5.39848000;2023-03-23T12:22:41;100419.66;;;15.26
7830;BMP180;3960;51.86894000;5.39848000;2023-03-23T12:28:33;100417.25;;;14.94
7830;BMP180;3960;51.86894000;5.39848000;2023-03-23T12:30:56;100421.50;;;14.95
7830;BMP180;3960;51.86894000;5.39848000;2023-03-23T12:33:47;100411.78;;;14.94
7830;BMP180;3960;51.86894000;5.39848000;2023-03-23T12:44:45;100393.28;;;14.55
7830;BMP180;3960;51.86894000;5.39848000;2023-03-23T12:47:43;100407.88;;;14.27
7830;BMP180;3960;51.86894000;5.39848000;2023-03-23T12:50:18;100393.72;;;14.07
7830;BMP180;3960;51.86894000;5.39848000;2023-03-23T12:53:09;100373.56;;;13.80
7830;BMP180;3960;51.86894000;5.39848000;2023-03-23T12:55:45;100381.31;;;14.06
7830;BMP180;3960;51.86894000;5.39848000;2023-03-23T12:58:15;100377.69;;;14.89
7830;BMP180;3960;51.86894000;5.39848000;2023-03-23T13:06:36;100378.91;;;16.09
7830;BMP180;3960;51.86894000;5.39848000;2023-03-23T13:11:42;100381.31;;;16.56
7830;BMP180;3960;51.86894000;5.39848000;2023-03-23T13:14:28;100396.31;;;16.87
7830;BMP180;3960;51.86894000;5.39848000;2023-03-23T13:22:28;100403.03;;;16.11
7830;BMP180;3960;51.86894000;5.39848000;2023-03-23T13:25:00;100398.88;;;15.89
7830;BMP180;3960;51.86894000;5.39848000;2023-03-23T13:27:28;100386.53;;;15.75
7830;BMP180;3960;51.86894000;5.39848000;2023-03-23T13:29:55;100395.19;;;15.74
7830;BMP180;3960;51.86894000;5.39848000;2023-03-23T13:32:34;100390.09;;;15.54
7830;BMP180;3960;51.86894000;5.39848000;2023-03-23T13:35:02;100396.41;;;15.42
7830;BMP180;3960;51.86894000;5.39848000;2023-03-23T13:37:28;100396.47;;;15.30
7830;BMP180;3960;51.86894000;5.39848000;2023-03-23T13:40:25;100398.56;;;15.26
7830;BMP180;3960;51.86894000;5.39848000;2023-03-23T13:42:55;100379.50;;;15.14
7830;BMP180;3960;51.86894000;5.39848000;2023-03-23T13:48:23;100392.97;;;15.08
7830;BMP180;3960;51.86894000;5.39848000;2023-03-23T13:50:56;100415.59;;;14.96